createdAt,value
2023-04-14T03:59:05.077Z,0.00
2023-04-14T04:00:05.030Z,0.00
2023-04-14T04:01:05.052Z,0.00
2023-04-14T04:02:05.128Z,0.00
2023-04-14T04:03:05.241Z,0.00
2023-04-14T04:04:05.118Z,0.00
2023-04-14T04:05:05.180Z,0.00
2023-04-14T04:06:04.986Z,0.00
2023-04-14T04:07:05.021Z,0.00
2023-04-14T04:08:04.995Z,0.00
2023-04-14T04:09:04.964Z,0.00
2023-04-14T04:10:04.978Z,4.00
2023-04-14T04:11:05.303Z,4.00
2023-04-14T04:12:04.953Z,0.00
2023-04-14T04:13:04.938Z,4.00
2023-04-14T04:14:04.943Z,4.00
2023-04-14T04:15:04.966Z,8.00
2023-04-14T04:16:04.996Z,4.00
2023-04-14T04:17:04.938Z,8.00
2023-04-14T04:18:04.911Z,8.00
2023-04-14T04:19:04.913Z,12.00
2023-04-14T04:20:06.814Z,12.00
2023-04-14T04:21:04.901Z,12.00
2023-04-14T04:22:04.931Z,12.00
2023-04-14T04:23:04.904Z,20.00
2023-04-14T04:24:04.896Z,20.00
2023-04-14T04:25:04.898Z,24.00
2023-04-14T04:26:04.890Z,24.00
2023-04-14T04:27:07.877Z,24.00
2023-04-14T04:28:04.871Z,28.00
2023-04-14T04:29:04.861Z,36.00
2023-04-14T04:30:04.897Z,40.00
2023-04-14T04:31:04.890Z,40.00
2023-04-14T04:32:04.887Z,48.00
2023-04-14T04:33:04.859Z,52.00
2023-04-14T04:34:04.864Z,56.00
2023-04-14T04:35:04.850Z,64.00
2023-04-14T04:36:04.857Z,68.00
2023-04-14T04:37:04.831Z,76.00
2023-04-14T04:38:04.821Z,80.00
2023-04-14T04:39:04.816Z,88.00
2023-04-14T04:40:04.822Z,92.00
2023-04-14T04:41:04.837Z,100.00
2023-04-14T04:42:04.812Z,112.00
2023-04-14T04:43:04.792Z,116.00
2023-04-14T04:44:04.810Z,128.00
2023-04-14T04:45:04.821Z,136.00
2023-04-14T04:46:04.846Z,140.00
2023-04-14T04:47:04.808Z,152.00
2023-04-14T04:48:04.844Z,164.00
2023-04-14T04:49:04.787Z,172.00
2023-04-14T04:50:04.774Z,184.00
2023-04-14T04:51:04.766Z,192.00
2023-04-14T04:52:04.766Z,204.00
2023-04-14T04:53:04.770Z,216.00
2023-04-14T04:54:04.771Z,228.00
2023-04-14T04:55:04.751Z,236.00
2023-04-14T04:56:04.743Z,252.00
2023-04-14T04:57:04.750Z,268.00
2023-04-14T04:58:04.739Z,284.00
2023-04-14T04:59:04.739Z,300.00
2023-04-14T05:00:04.749Z,316.00
2023-04-14T05:01:04.772Z,340.00
2023-04-14T05:02:04.788Z,360.00
2023-04-14T05:03:04.797Z,384.00
2023-04-14T05:04:04.749Z,400.00
2023-04-14T05:05:04.741Z,408.00
2023-04-14T05:06:04.716Z,408.00
2023-04-14T05:07:04.716Z,404.00
2023-04-14T05:08:04.727Z,420.00
2023-04-14T05:09:04.715Z,452.00
2023-04-14T05:10:04.720Z,480.00
2023-04-14T05:11:04.718Z,496.00
2023-04-14T05:12:04.693Z,512.00
2023-04-14T05:13:04.724Z,544.00
2023-04-14T05:14:04.680Z,564.00
2023-04-14T05:15:04.667Z,592.00
2023-04-14T05:16:04.756Z,608.00
2023-04-14T05:17:04.673Z,612.00
2023-04-14T05:18:04.746Z,628.00
2023-04-14T05:19:04.689Z,664.00
2023-04-14T05:20:04.657Z,684.00
2023-04-14T05:21:04.676Z,704.00
2023-04-14T05:22:04.660Z,724.00
2023-04-14T05:23:04.666Z,752.00
2023-04-14T05:24:04.636Z,784.00
2023-04-14T05:25:04.633Z,804.00
2023-04-14T05:26:26.893Z,836.00
2023-04-14T05:27:12.997Z,856.00
2023-04-14T05:28:04.633Z,872.00
2023-04-14T05:29:04.652Z,900.00
2023-04-14T05:30:04.667Z,924.00
2023-04-14T05:31:04.637Z,956.00
2023-04-14T05:32:04.620Z,988.00
2023-04-14T05:33:04.705Z,1024.00
2023-04-14T05:34:04.612Z,1044.00
2023-04-14T05:35:04.638Z,1084.00
2023-04-14T05:36:04.588Z,1128.00
2023-04-14T05:37:04.584Z,1160.00
2023-04-14T05:38:04.615Z,1184.00
2023-04-14T05:39:04.619Z,1192.00
2023-04-14T05:40:04.621Z,1200.00
2023-04-14T05:41:04.572Z,1216.00
2023-04-14T05:42:04.618Z,1252.00
2023-04-14T05:43:04.574Z,1272.00
2023-04-14T05:44:04.876Z,1316.00
2023-04-14T05:45:04.555Z,1388.00
2023-04-14T05:46:04.815Z,1444.00
2023-04-14T05:47:05.471Z,1492.00
2023-04-14T05:48:05.420Z,1552.00
2023-04-14T05:49:04.558Z,1628.00
2023-04-14T05:50:04.596Z,1676.00
2023-04-14T05:51:04.607Z,1716.00
2023-04-14T05:52:04.613Z,1760.00
2023-04-14T05:53:04.548Z,1816.00
2023-04-14T05:54:04.666Z,1860.00
2023-04-14T05:55:04.535Z,1908.00
2023-04-14T05:56:04.521Z,1964.00
2023-04-14T05:57:04.560Z,2012.00
2023-04-14T05:58:05.428Z,2064.00
2023-04-14T05:59:04.546Z,2088.00
2023-04-14T06:00:04.550Z,2124.00
2023-04-14T06:01:04.557Z,2172.00
2023-04-14T06:02:05.023Z,2208.00
2023-04-14T06:03:04.710Z,2240.00
2023-04-14T06:04:05.783Z,2276.00
2023-04-14T06:05:04.630Z,2308.00
2023-04-14T06:06:04.534Z,2348.00
2023-04-14T06:07:04.526Z,2372.00
2023-04-14T06:08:04.575Z,2408.00
2023-04-14T06:09:06.412Z,2436.00
2023-04-14T06:10:04.487Z,2444.00
2023-04-14T06:11:04.551Z,2468.00
2023-04-14T06:12:04.605Z,2492.00
2023-04-14T06:13:04.507Z,2528.00
2023-04-14T06:14:04.470Z,2548.00
2023-04-14T06:15:04.488Z,2596.00
2023-04-14T06:16:04.495Z,2644.00
2023-04-14T06:17:04.449Z,2692.00
2023-04-14T06:18:04.971Z,2708.00
2023-04-14T06:19:05.408Z,2760.00
2023-04-14T06:20:04.466Z,2788.00
2023-04-14T06:21:04.487Z,2824.00
2023-04-14T06:24:37.138Z,2960.00
2023-04-14T06:25:37.060Z,2988.00
2023-04-14T06:26:37.042Z,3016.00
2023-04-14T06:27:37.043Z,3036.00
2023-04-14T06:28:37.103Z,3064.00
2023-04-14T06:29:37.088Z,3088.00
2023-04-14T06:30:37.023Z,3108.00
2023-04-14T06:31:37.042Z,3148.00
2023-04-14T06:32:37.075Z,3180.00
2023-04-14T06:33:37.038Z,3216.00
2023-04-14T06:34:38.169Z,3260.00
2023-04-14T06:35:37.022Z,3268.00
2023-04-14T06:36:37.009Z,3300.00
2023-04-14T06:37:37.030Z,3344.00
2023-04-14T06:38:37.111Z,3368.00
2023-04-14T06:39:37.040Z,3404.00
2023-04-14T06:40:37.046Z,3432.00
2023-04-14T06:41:37.028Z,3464.00
2023-04-14T06:42:36.989Z,3480.00
2023-04-14T06:43:37.028Z,3504.00
2023-04-14T06:44:36.966Z,3520.00
2023-04-14T06:45:37.071Z,3552.00
2023-04-14T06:46:37.765Z,3564.00
2023-04-14T06:47:37.059Z,3584.00
2023-04-14T06:48:36.976Z,3608.00
2023-04-14T06:49:36.988Z,3616.00
2023-04-14T06:50:36.976Z,3636.00
2023-04-14T06:51:36.982Z,3660.00
2023-04-14T06:52:36.951Z,3676.00
2023-04-14T06:53:36.949Z,3692.00
2023-04-14T06:54:36.982Z,3704.00
2023-04-14T06:55:37.369Z,3728.00
2023-04-14T06:56:36.978Z,3748.00
2023-04-14T06:57:36.978Z,3768.00
2023-04-14T06:58:37.037Z,3804.00
2023-04-14T06:59:36.937Z,3820.00
2023-04-14T07:00:36.965Z,3848.00
2023-04-14T07:01:36.959Z,3864.00
2023-04-14T07:02:37.152Z,3876.00
2023-04-14T07:03:37.102Z,3892.00
2023-04-14T07:04:36.977Z,3888.00
2023-04-14T07:05:36.926Z,3900.00
2023-04-14T07:06:36.931Z,3904.00
2023-04-14T07:07:36.914Z,3896.00
2023-04-14T07:08:36.929Z,3912.00
2023-04-14T07:09:36.932Z,3912.00
2023-04-14T07:10:36.961Z,3916.00
2023-04-14T07:11:37.088Z,3928.00
2023-04-14T07:12:36.920Z,3932.00
2023-04-14T07:13:36.934Z,3944.00
2023-04-14T07:14:36.919Z,3948.00
2023-04-14T07:15:36.935Z,3964.00
2023-04-14T07:16:36.895Z,3968.00
2023-04-14T07:17:36.928Z,3968.00
2023-04-14T07:18:36.912Z,3992.00
2023-04-14T07:19:36.910Z,4000.00
2023-04-14T07:20:36.922Z,4004.00
2023-04-14T07:21:36.894Z,4016.00
2023-04-14T07:22:36.914Z,4040.00
2023-04-14T07:23:36.931Z,4060.00
2023-04-14T07:24:36.907Z,4076.00
2023-04-14T07:25:36.900Z,4080.00
2023-04-14T07:26:36.901Z,4104.00
2023-04-14T07:27:36.905Z,4120.00
2023-04-14T07:28:37.053Z,4128.00
2023-04-14T07:29:37.625Z,4140.00
2023-04-14T07:30:36.933Z,4148.00
2023-04-14T07:31:37.055Z,4156.00
2023-04-14T07:32:36.939Z,4156.00
2023-04-14T07:33:36.912Z,4168.00
2023-04-14T07:34:36.895Z,4176.00
2023-04-14T07:35:36.880Z,4188.00
2023-04-14T07:36:36.890Z,4196.00
2023-04-14T07:37:36.886Z,4220.00
2023-04-14T07:38:36.944Z,4236.00
2023-04-14T07:39:36.920Z,4256.00
2023-04-14T07:40:38.370Z,4256.00
2023-04-14T07:41:36.924Z,4268.00
2023-04-14T07:42:36.876Z,4268.00
2023-04-14T07:43:36.919Z,4284.00
2023-04-14T07:44:36.935Z,4284.00
2023-04-14T07:45:36.887Z,4288.00
2023-04-14T07:46:36.972Z,4300.00
2023-04-14T07:47:36.948Z,4320.00
2023-04-14T07:48:36.860Z,4324.00
2023-04-14T07:49:37.040Z,4316.00
2023-04-14T07:50:36.902Z,4312.00
2023-04-14T07:51:37.114Z,4304.00
2023-04-14T07:52:36.946Z,4300.00
2023-04-14T07:53:37.080Z,4304.00
2023-04-14T07:54:36.848Z,4296.00
2023-04-14T07:55:37.016Z,4304.00
2023-04-14T07:56:37.131Z,4292.00
2023-04-14T07:57:37.044Z,4272.00
2023-04-14T07:58:36.959Z,4268.00
2023-04-14T07:59:36.858Z,4256.00
2023-04-14T08:00:36.997Z,4232.00
2023-04-14T08:01:36.933Z,4228.00
2023-04-14T08:02:37.027Z,4208.00
2023-04-14T08:03:37.018Z,4204.00
2023-04-14T08:04:36.875Z,4188.00
2023-04-14T08:05:36.995Z,4180.00
2023-04-14T08:06:36.855Z,4168.00
2023-04-14T08:07:36.859Z,4164.00
2023-04-14T08:08:36.907Z,4140.00
2023-04-14T08:09:36.828Z,4124.00
2023-04-14T08:10:36.910Z,4120.00
2023-04-14T08:11:36.921Z,4116.00
2023-04-14T08:12:36.850Z,4096.00
2023-04-14T08:13:36.855Z,4072.00
2023-04-14T08:14:36.849Z,4072.00
2023-04-14T08:15:36.851Z,4048.00
2023-04-14T08:16:37.308Z,4040.00
2023-04-14T08:17:36.879Z,4028.00
2023-04-14T08:18:36.863Z,4024.00
2023-04-14T08:19:36.848Z,4000.00
2023-04-14T08:20:36.878Z,3992.00
2023-04-14T08:21:36.856Z,3968.00
2023-04-14T08:22:36.814Z,3952.00
2023-04-14T08:23:36.868Z,3940.00
2023-04-14T08:24:37.906Z,3920.00
2023-04-14T08:25:36.804Z,3916.00
2023-04-14T08:26:36.830Z,3912.00
2023-04-14T08:27:36.912Z,3896.00
2023-04-14T08:28:36.928Z,3880.00
2023-04-14T08:29:36.824Z,3860.00
2023-04-14T08:30:36.812Z,3856.00
2023-04-14T08:31:36.907Z,3836.00
2023-04-14T08:32:36.908Z,3824.00
2023-04-14T08:33:36.975Z,3804.00
2023-04-14T08:34:36.870Z,3788.00
2023-04-14T08:35:41.606Z,3784.00
2023-04-14T08:36:36.862Z,3776.00
2023-04-14T08:37:36.797Z,3768.00
2023-04-14T08:38:37.001Z,3748.00
2023-04-14T08:39:36.795Z,3728.00
2023-04-14T08:40:37.925Z,3716.00
2023-04-14T08:41:36.868Z,3700.00
2023-04-14T08:42:36.853Z,3676.00
2023-04-14T08:43:36.949Z,3660.00
2023-04-14T08:44:36.849Z,3652.00
2023-04-14T08:45:36.895Z,3636.00
2023-04-14T08:46:36.848Z,3624.00
2023-04-14T08:47:37.005Z,3612.00
2023-04-14T08:48:36.872Z,3600.00
2023-04-14T08:49:36.795Z,3584.00
2023-04-14T08:50:36.806Z,3572.00
2023-04-14T08:51:36.826Z,3556.00
2023-04-14T08:52:36.834Z,3548.00
2023-04-14T08:53:36.801Z,3536.00
2023-04-14T08:54:36.791Z,3536.00
2023-04-14T08:55:36.808Z,3516.00
2023-04-14T08:56:36.818Z,3500.00
2023-04-14T08:57:36.782Z,3492.00
2023-04-14T08:58:36.823Z,3480.00
2023-04-14T08:59:36.869Z,3456.00
2023-04-14T09:00:36.785Z,3440.00
2023-04-14T09:01:36.854Z,3424.00
2023-04-14T09:02:36.885Z,3412.00
2023-04-14T09:03:37.002Z,3404.00
2023-04-14T09:04:36.937Z,3396.00
2023-04-14T09:05:36.790Z,3384.00
2023-04-14T09:06:36.827Z,3376.00
2023-04-14T09:07:36.850Z,3364.00
2023-04-14T09:08:36.808Z,3364.00
2023-04-14T09:09:36.810Z,3360.00
2023-04-14T09:10:36.857Z,3348.00
2023-04-14T09:11:36.787Z,3332.00
2023-04-14T09:12:38.169Z,3312.00
2023-04-14T09:15:09.338Z,3300.00
2023-04-14T09:16:09.304Z,3288.00
2023-04-14T09:17:09.365Z,3264.00
2023-04-14T09:18:09.833Z,3260.00
2023-04-14T09:19:10.148Z,3260.00
2023-04-14T09:20:35.654Z,3260.00
2023-04-14T09:21:37.163Z,3260.00
2023-04-14T09:22:09.361Z,3252.00
2023-04-14T09:23:09.667Z,3248.00
2023-04-14T09:24:11.014Z,3268.00
2023-04-14T09:25:09.393Z,3268.00
2023-04-14T09:26:09.390Z,3284.00
2023-04-14T09:27:09.409Z,3276.00
2023-04-14T09:28:09.318Z,3252.00
2023-04-14T09:29:09.384Z,3236.00
2023-04-14T09:30:09.346Z,3240.00
2023-04-14T09:31:09.334Z,3220.00
2023-04-14T09:32:09.440Z,3220.00
2023-04-14T09:33:09.604Z,3212.00
2023-04-14T09:34:09.789Z,3200.00
2023-04-14T09:35:09.340Z,3216.00
2023-04-14T09:36:09.383Z,3224.00
2023-04-14T09:37:09.470Z,3236.00
2023-04-14T09:38:09.540Z,3228.00
2023-04-14T09:39:09.376Z,3224.00
2023-04-14T09:40:09.351Z,3224.00
2023-04-14T09:41:09.306Z,3236.00
2023-04-14T09:42:09.399Z,3228.00
2023-04-14T09:43:09.330Z,3216.00
2023-04-14T09:44:09.345Z,3204.00
2023-04-14T09:45:09.321Z,3204.00
2023-04-14T09:46:09.407Z,3248.00
2023-04-14T09:47:09.337Z,3256.00
2023-04-14T09:48:09.429Z,3272.00
2023-04-14T09:49:09.361Z,3256.00
2023-04-14T09:50:09.308Z,3268.00
2023-04-14T09:51:09.324Z,3300.00
2023-04-14T09:52:09.353Z,3332.00
2023-04-14T09:53:09.329Z,3356.00
2023-04-14T09:54:09.331Z,3372.00
2023-04-14T09:55:09.312Z,3376.00
2023-04-14T09:56:09.309Z,3372.00
2023-04-14T09:57:09.301Z,3392.00
2023-04-14T09:58:09.318Z,3400.00
2023-04-14T09:59:09.324Z,3388.00
2023-04-14T10:00:09.335Z,3396.00
2023-04-14T10:01:09.336Z,3428.00
2023-04-14T10:02:09.431Z,3496.00
2023-04-14T10:13:29.540Z,3952.00
2023-04-14T10:14:29.511Z,3992.00
2023-04-14T10:15:29.500Z,3996.00
2023-04-14T10:16:29.878Z,3992.00
2023-04-14T10:17:30.337Z,4016.00
2023-04-14T10:18:29.524Z,4044.00
2023-04-14T10:19:29.495Z,4048.00
2023-04-14T10:20:29.492Z,4052.00
2023-04-14T10:21:29.515Z,4020.00
2023-04-14T10:22:29.501Z,3964.00
2023-04-14T10:23:29.535Z,3932.00
2023-04-14T10:24:30.285Z,3908.00
2023-04-14T10:25:29.501Z,3916.00
2023-04-14T10:26:29.522Z,3932.00
2023-04-14T10:27:30.312Z,3948.00
2023-04-14T10:28:29.491Z,3988.00
2023-04-14T10:29:29.549Z,4016.00
2023-04-14T10:30:29.502Z,4060.00
2023-04-14T10:31:29.593Z,4108.00
2023-04-14T10:33:29.513Z,4288.00
2023-04-14T10:34:29.535Z,4332.00
2023-04-14T10:35:29.567Z,4316.00
2023-04-14T10:36:29.495Z,4304.00
2023-04-14T10:37:29.504Z,4352.00
2023-04-14T10:38:30.248Z,4392.00
2023-04-14T10:39:29.545Z,4448.00
2023-04-14T10:40:29.550Z,4504.00
2023-04-14T10:41:29.524Z,4492.00
2023-04-14T10:42:29.543Z,4488.00
2023-04-14T10:43:29.530Z,4420.00
2023-04-14T10:44:29.672Z,4384.00
2023-04-14T10:45:29.575Z,4388.00
2023-04-14T10:46:29.574Z,4468.00
2023-04-14T10:47:29.640Z,4580.00
2023-04-14T10:48:29.589Z,4696.00
2023-04-14T10:49:29.591Z,4844.00
2023-04-14T10:50:29.548Z,4956.00
2023-04-14T10:51:29.575Z,4880.00
2023-04-14T10:52:29.530Z,4816.00
2023-04-14T10:53:29.571Z,4860.00
2023-04-14T10:54:29.554Z,4888.00
2023-04-14T10:55:29.577Z,4964.00
2023-04-14T10:56:29.554Z,5056.00
2023-04-14T10:57:29.697Z,5156.00
2023-04-14T10:58:29.612Z,5188.00
2023-04-14T10:59:29.544Z,5200.00
2023-04-14T11:00:29.550Z,5200.00
2023-04-14T11:01:29.677Z,5212.00
2023-04-14T11:02:29.885Z,5196.00
2023-04-14T11:03:29.700Z,5148.00
2023-04-14T11:04:29.800Z,5072.00
2023-04-14T11:05:29.660Z,5052.00
2023-04-14T11:06:29.685Z,5072.00
2023-04-14T11:07:29.656Z,5100.00
2023-04-14T11:08:29.587Z,5160.00
2023-04-14T11:09:29.706Z,5224.00
2023-04-14T11:10:29.608Z,5280.00
2023-04-14T11:11:29.601Z,5340.00
2023-04-14T11:12:29.678Z,5372.00
2023-04-14T11:13:29.725Z,5400.00
2023-04-14T11:14:29.618Z,5472.00
2023-04-14T11:15:29.630Z,5556.00
2023-04-14T11:16:29.713Z,5660.00
2023-04-14T11:17:29.687Z,5748.00
2023-04-14T11:18:29.680Z,5832.00
2023-04-14T11:19:29.652Z,5912.00
2023-04-14T11:20:29.671Z,5980.00
2023-04-14T11:21:29.707Z,6064.00
2023-04-14T11:22:30.281Z,6124.00
2023-04-14T11:23:29.664Z,5600.00
2023-04-14T11:24:29.633Z,6080.00
2023-04-14T11:25:29.660Z,6236.00
2023-04-14T11:26:29.689Z,6332.00
2023-04-14T11:27:29.642Z,6508.00
2023-04-14T11:28:29.649Z,6680.00
2023-04-14T11:29:29.629Z,6868.00
2023-04-14T11:30:29.680Z,7008.00
2023-04-14T11:31:29.710Z,7152.00
2023-04-14T11:32:29.655Z,7288.00
2023-04-14T11:33:29.760Z,7364.00
2023-04-14T11:34:30.286Z,7252.00
2023-04-14T11:35:29.667Z,6044.00
2023-04-14T11:36:29.677Z,5824.00
2023-04-14T11:37:29.735Z,6564.00
2023-04-14T11:38:29.698Z,7732.00
2023-04-14T11:39:29.703Z,7732.00
2023-04-14T11:40:29.724Z,7868.00
2023-04-14T11:41:29.687Z,6628.00
2023-04-14T11:42:29.679Z,5216.00
2023-04-14T11:43:29.730Z,5504.00
2023-04-14T11:44:29.716Z,5752.00
2023-04-14T11:45:29.692Z,5220.00
2023-04-14T11:46:29.778Z,5304.00
2023-04-14T11:47:29.739Z,6332.00
2023-04-14T11:48:29.704Z,5784.00
2023-04-14T11:49:29.777Z,7896.00
2023-04-14T11:50:29.712Z,9196.00
2023-04-14T11:51:29.716Z,9228.00
2023-04-14T11:52:29.734Z,8824.00
2023-04-14T11:53:29.805Z,8676.00
2023-04-14T11:54:29.897Z,6604.00
2023-04-14T11:55:29.753Z,7000.00
2023-04-14T11:56:29.751Z,7576.00
2023-04-14T11:57:29.752Z,4652.00
2023-04-14T11:58:29.771Z,4520.00
2023-04-14T11:59:29.809Z,4220.00
2023-04-14T12:00:29.772Z,4172.00
2023-04-14T12:01:29.788Z,4220.00
2023-04-14T12:02:29.867Z,4328.00
2023-04-14T12:03:30.491Z,4512.00
2023-04-14T12:04:30.045Z,4896.00
2023-04-14T12:05:29.962Z,6192.00
2023-04-14T12:06:29.851Z,6612.00
2023-04-14T12:07:29.788Z,5548.00
2023-04-14T12:08:29.803Z,5968.00
2023-04-14T12:09:29.804Z,9192.00
2023-04-14T12:10:29.806Z,9448.00
2023-04-14T12:11:29.796Z,9996.00
2023-04-14T12:12:29.804Z,9776.00
2023-04-14T12:13:29.832Z,8240.00
2023-04-14T12:14:29.824Z,9512.00
2023-04-14T12:15:29.826Z,9820.00
2023-04-14T12:16:29.897Z,9724.00
2023-04-14T12:17:29.888Z,9872.00
2023-04-14T12:18:29.836Z,9776.00
2023-04-14T12:19:29.850Z,9564.00
2023-04-14T12:20:29.880Z,4780.00
2023-04-14T12:21:29.887Z,4596.00
2023-04-14T12:22:29.836Z,4540.00
2023-04-14T12:23:29.882Z,4640.00
2023-04-14T12:24:29.916Z,4724.00
2023-04-14T12:25:29.840Z,4844.00
2023-04-14T12:26:29.860Z,5016.00
2023-04-14T12:27:29.876Z,5192.00
2023-04-14T12:28:29.893Z,5608.00
2023-04-14T12:29:29.874Z,9056.00
2023-04-14T12:30:29.887Z,9792.00
2023-04-14T12:31:30.074Z,6112.00
2023-04-14T12:32:29.942Z,6220.00
2023-04-14T12:33:29.903Z,6396.00
2023-04-14T12:34:29.882Z,6400.00
2023-04-14T12:35:29.929Z,6968.00
2023-04-14T12:36:45.319Z,11796.00
2023-04-14T12:37:29.902Z,12088.00
2023-04-14T12:38:29.960Z,8072.00
2023-04-14T12:39:29.917Z,12572.00
2023-04-14T12:40:29.948Z,12588.00
2023-04-14T12:41:29.908Z,12536.00
2023-04-14T12:42:29.931Z,12612.00
2023-04-14T12:43:29.934Z,12428.00
2023-04-14T12:44:29.975Z,12192.00
2023-04-14T12:45:30.282Z,12124.00
2023-04-14T12:46:29.961Z,12036.00
2023-04-14T12:47:29.952Z,12260.00
2023-04-14T12:48:29.958Z,12380.00
2023-04-14T12:49:29.945Z,12512.00
2023-04-14T12:50:29.934Z,12436.00
2023-04-14T12:51:29.951Z,10076.00
2023-04-14T12:52:29.945Z,13044.00
2023-04-14T12:53:29.970Z,13132.00
2023-04-14T12:54:29.962Z,13428.00
2023-04-14T12:55:30.027Z,13744.00
2023-04-14T12:56:29.998Z,14000.00
2023-04-14T12:57:29.981Z,14180.00
2023-04-14T12:58:29.995Z,14392.00
2023-04-14T12:59:30.028Z,14784.00
2023-04-14T13:00:30.048Z,15024.00
2023-04-14T13:04:02.649Z,15432.00
2023-04-14T13:05:02.576Z,15292.00
2023-04-14T13:06:02.567Z,15380.00
2023-04-14T13:07:02.598Z,15284.00
2023-04-14T13:08:02.589Z,15420.00
2023-04-14T13:09:02.832Z,15516.00
2023-04-14T13:10:02.612Z,15616.00
2023-04-14T13:11:02.596Z,15916.00
2023-04-14T13:12:02.579Z,16080.00
2023-04-14T13:13:02.590Z,16408.00
2023-04-14T13:14:02.622Z,16764.00
2023-04-14T13:15:02.602Z,16988.00
2023-04-14T13:16:13.138Z,17080.00
2023-04-14T13:17:02.644Z,17188.00
2023-04-14T13:18:02.661Z,17360.00
2023-04-14T13:19:02.895Z,17608.00
2023-04-14T13:20:02.663Z,17956.00
2023-04-14T13:21:02.637Z,18368.00
2023-04-14T13:22:02.682Z,18720.00
2023-04-14T13:23:02.663Z,19072.00
2023-04-14T13:24:02.688Z,19328.00
2023-04-14T13:25:02.675Z,19424.00
2023-04-14T13:26:02.684Z,19456.00
2023-04-14T13:27:02.707Z,19488.00
2023-04-14T13:28:02.701Z,19680.00
2023-04-14T13:29:03.134Z,15800.00
2023-04-14T13:30:02.721Z,6088.00
2023-04-14T13:31:02.721Z,9216.00
2023-04-14T13:32:02.772Z,17892.00
2023-04-14T13:33:02.835Z,13392.00
2023-04-14T13:34:02.750Z,20384.00
2023-04-14T13:35:02.782Z,20640.00
2023-04-14T13:36:03.036Z,21024.00
2023-04-14T13:37:02.815Z,21088.00
2023-04-14T13:38:02.775Z,21408.00
2023-04-14T13:39:03.018Z,21600.00
2023-04-14T13:40:02.789Z,23808.00
2023-04-14T13:41:02.820Z,28960.00
2023-04-14T13:42:02.828Z,32480.00
2023-04-14T13:43:02.830Z,26048.00
2023-04-14T13:44:02.816Z,16352.00
2023-04-14T13:45:02.818Z,24160.00
2023-04-14T13:46:02.894Z,24960.00
2023-04-14T13:47:02.884Z,30048.00
2023-04-14T13:48:02.922Z,38528.00
2023-04-14T13:49:03.225Z,47360.00
2023-04-14T13:50:02.867Z,52352.00
2023-04-14T13:51:02.874Z,50912.00
2023-04-14T13:52:02.938Z,51040.00
2023-04-14T13:53:02.884Z,50368.00
2023-04-14T13:54:02.915Z,13028.00
2023-04-14T13:55:02.889Z,14572.00
2023-04-14T13:56:02.954Z,9744.00
2023-04-14T13:57:02.940Z,12908.00
2023-04-14T13:58:02.942Z,9112.00
2023-04-14T13:59:03.037Z,9288.00
2023-04-14T14:00:02.958Z,9256.00
2023-04-14T14:01:02.959Z,10224.00
2023-04-14T14:02:03.098Z,16104.00
2023-04-14T14:03:03.120Z,16512.00
2023-04-14T14:04:03.275Z,23840.00
2023-04-14T14:05:02.995Z,23520.00
2023-04-14T14:06:03.005Z,23552.00
2023-04-14T14:07:03.007Z,23232.00
2023-04-14T14:08:02.989Z,22368.00
2023-04-14T14:09:05.659Z,22176.00
2023-04-14T14:10:02.996Z,25696.00
2023-04-14T14:11:03.012Z,39776.00
2023-04-14T14:12:03.028Z,56224.00
2023-04-14T14:13:03.045Z,63648.00
2023-04-14T14:14:03.277Z,64064.00
2023-04-14T14:15:03.118Z,67168.00
2023-04-14T14:16:03.054Z,66432.00
2023-04-14T14:17:03.059Z,66208.00
2023-04-14T14:18:03.155Z,65664.00
2023-04-14T14:19:03.306Z,63904.00
2023-04-14T14:20:03.104Z,62912.00
2023-04-14T14:21:03.097Z,62144.00
2023-04-14T14:22:03.073Z,62464.00
2023-04-14T14:23:03.120Z,61536.00
2023-04-14T14:24:03.436Z,62464.00
2023-04-14T14:25:17.411Z,61632.00
2023-04-14T14:26:03.121Z,61280.00
2023-04-14T14:27:03.124Z,63456.00
2023-04-14T14:28:03.153Z,64512.00
2023-04-14T14:29:03.189Z,63456.00
2023-04-14T14:30:03.145Z,62944.00
2023-04-14T14:31:04.960Z,62784.00
2023-04-14T14:32:03.159Z,62464.00
2023-04-14T14:33:03.248Z,58176.00
2023-04-14T14:34:03.503Z,60480.00
2023-04-14T14:35:03.227Z,39808.00
2023-04-14T14:36:03.191Z,16964.00
2023-04-14T14:37:03.203Z,16892.00
2023-04-14T14:38:03.252Z,13168.00
2023-04-14T14:39:03.253Z,20384.00
2023-04-14T14:40:03.276Z,13100.00
2023-04-14T14:41:03.277Z,15380.00
2023-04-14T14:42:03.242Z,7904.00
2023-04-14T14:43:03.272Z,6100.00
2023-04-14T14:44:03.599Z,5252.00
2023-04-14T14:45:03.306Z,4932.00
2023-04-14T14:46:03.404Z,4756.00
2023-04-14T14:47:03.499Z,4572.00
2023-04-14T14:48:03.309Z,4324.00
2023-04-14T14:49:03.343Z,4088.00
2023-04-14T14:50:05.934Z,3944.00
2023-04-14T14:51:03.306Z,3944.00
2023-04-14T14:52:03.300Z,3980.00
2023-04-14T14:53:03.279Z,3960.00
2023-04-14T14:54:09.823Z,3944.00
2023-04-14T14:55:03.261Z,3988.00
2023-04-14T14:56:03.306Z,4104.00
2023-04-14T14:57:03.282Z,4360.00
2023-04-14T14:58:03.310Z,4568.00
2023-04-14T14:59:03.291Z,4436.00
2023-04-14T15:00:03.330Z,4252.00
2023-04-14T15:01:03.285Z,4252.00
2023-04-14T15:02:03.347Z,4364.00
2023-04-14T15:03:03.333Z,4436.00
2023-04-14T15:04:03.512Z,4632.00
2023-04-14T15:05:03.291Z,4876.00
2023-04-14T15:06:03.296Z,5088.00
2023-04-14T15:07:03.353Z,5032.00
2023-04-14T15:08:24.304Z,5088.00
2023-04-14T15:09:03.309Z,5152.00
2023-04-14T15:10:03.332Z,5248.00
2023-04-14T15:11:03.339Z,5408.00
2023-04-14T15:12:03.319Z,5788.00
2023-04-14T15:13:03.362Z,5920.00
2023-04-14T15:14:03.793Z,6236.00
2023-04-14T15:15:03.356Z,7060.00
2023-04-14T15:16:03.382Z,13568.00
2023-04-14T15:17:03.396Z,24288.00
2023-04-14T15:18:03.417Z,40576.00
2023-04-14T15:19:03.389Z,36480.00
2023-04-14T15:20:03.392Z,20672.00
2023-04-14T15:21:03.387Z,12388.00
2023-04-14T15:22:03.368Z,9412.00
2023-04-14T15:23:03.421Z,22496.00
2023-04-14T15:24:03.813Z,14740.00
2023-04-14T15:25:03.379Z,23008.00
2023-04-14T15:26:03.408Z,23424.00
2023-04-14T15:27:03.402Z,9536.00
2023-04-14T15:28:03.402Z,17432.00
2023-04-14T15:29:03.413Z,33664.00
2023-04-14T15:30:03.425Z,35520.00
2023-04-14T15:31:03.428Z,28320.00
2023-04-14T15:32:03.457Z,25152.00
2023-04-14T15:33:03.553Z,24768.00
2023-04-14T15:34:03.712Z,22752.00
2023-04-14T15:35:03.418Z,24320.00
2023-04-14T15:36:03.443Z,23776.00
2023-04-14T15:37:03.439Z,20544.00
2023-04-14T15:38:03.426Z,22208.00
2023-04-14T15:39:03.461Z,8340.00
2023-04-14T15:40:03.443Z,5676.00
2023-04-14T15:41:04.477Z,5256.00
2023-04-14T15:42:03.456Z,5040.00
2023-04-14T15:43:03.441Z,4776.00
2023-04-14T15:44:03.719Z,4532.00
2023-04-14T15:45:03.455Z,4340.00
2023-04-14T15:46:03.473Z,4116.00
2023-04-14T15:47:03.448Z,3944.00
2023-04-14T15:48:03.521Z,3800.00
2023-04-14T15:49:03.465Z,3688.00
2023-04-14T15:50:09.861Z,3584.00
2023-04-14T15:51:03.432Z,3484.00
2023-04-14T15:52:03.450Z,3388.00
2023-04-14T15:53:03.507Z,3304.00
2023-04-14T15:54:03.891Z,3228.00
2023-04-14T15:55:03.453Z,3160.00
2023-04-14T15:56:03.444Z,3104.00
2023-04-14T15:57:03.444Z,3048.00
2023-04-14T15:58:03.434Z,3008.00
2023-04-14T15:59:03.467Z,2956.00
2023-04-14T16:00:03.506Z,2908.00
2023-04-14T16:01:03.498Z,2848.00
2023-04-14T16:12:38.102Z,2452.00
2023-04-14T16:13:38.057Z,2444.00
2023-04-14T16:14:38.024Z,2432.00
2023-04-14T16:15:38.097Z,2384.00
2023-04-14T16:16:38.044Z,2352.00
2023-04-14T16:17:38.176Z,2328.00
2023-04-14T16:18:38.011Z,2288.00
2023-04-14T16:19:38.009Z,2240.00
2023-04-14T16:20:38.021Z,2192.00
2023-04-14T16:21:38.013Z,2148.00
2023-04-14T16:22:38.007Z,2108.00
2023-04-14T16:23:38.080Z,2068.00
2023-04-14T16:24:38.015Z,2020.00
2023-04-14T16:25:38.005Z,1984.00
2023-04-14T16:26:38.022Z,1944.00
2023-04-14T16:27:38.004Z,1908.00
2023-04-14T16:28:38.027Z,1880.00
2023-04-14T16:29:38.030Z,1852.00
2023-04-14T16:30:38.392Z,1824.00
2023-04-14T16:31:38.033Z,1796.00
2023-04-14T16:32:38.089Z,1768.00
2023-04-14T16:33:38.014Z,1744.00